Time;durP1;ratioP1;P1;durP2;ratioP2;P2;SDS_P1;SDS_P2;PMS_P1;PMS_P2;Temp;Humidity;BMP_temperature;BMP_pressure;BME280_temperature;BME280_humidity;BME280_pressure;Samples;Min_cycle;Max_cycle;Signal;HPM_P1;HPM_P2
2023/04/05 00:00:36;;;;;;;;;;;16.90;37.30;;;;;;5095557;28;19924;-73
2023/04/05 00:03:01;;;;;;;;;;;16.80;37.30;;;;;;5095052;28;20334;-73
2023/04/05 00:05:29;;;;;;;;;;;16.80;37.30;;;;;;5094832;28;19924;-72
2023/04/05 00:07:55;;;;;;;;;;;16.80;37.40;;;;;;5113314;28;19952;-73
2023/04/05 00:10:21;;;;;;;;;;;16.80;37.40;;;;;;5094686;28;19924;-73
2023/04/05 00:12:46;;;;;;;;;;;16.80;37.40;;;;;;5094792;28;19920;-72
2023/04/05 00:15:12;;;;;;;;;;;16.80;37.40;;;;;;5113565;28;20006;-73
2023/04/05 00:17:37;;;;;;;;;;;16.70;37.40;;;;;;5113274;28;19920;-72
2023/04/05 00:20:06;;;;;;;;;;;16.70;37.40;;;;;;5095035;28;20371;-72
2023/04/05 00:22:34;;;;;;;;;;;16.70;37.40;;;;;;5094605;28;19998;-72
2023/04/05 00:25:00;;;;;;;;;;;16.70;37.40;;;;;;5112739;28;19927;-72
2023/04/05 00:27:26;;;;;;;;;;;16.70;37.40;;;;;;5094443;28;19924;-72
2023/04/05 00:29:52;;;;;;;;;;;16.70;37.50;;;;;;5094299;28;19924;-72
2023/04/05 00:32:17;;;;;;;;;;;16.60;37.50;;;;;;5094560;28;20363;-72
2023/04/05 00:34:42;;;;;;;;;;;16.60;37.40;;;;;;5094502;28;19945;-72
2023/04/05 00:37:08;;;;;;;;;;;16.60;37.50;;;;;;5094952;28;20263;-72
2023/04/05 00:39:34;;;;;;;;;;;16.60;37.50;;;;;;5112952;28;20548;-72
2023/04/05 00:42:03;;;;;;;;;;;16.60;37.50;;;;;;5094915;28;20397;-72
2023/04/05 00:44:33;;;;;;;;;;;16.80;37.50;;;;;;5094345;28;19919;-72
2023/04/05 00:47:01;;;;;;;;;;;17.20;37.30;;;;;;5094069;28;19919;-72
2023/04/05 00:49:27;;;;;;;;;;;17.60;36.90;;;;;;5094162;28;19946;-72
2023/04/05 00:51:56;;;;;;;;;;;18.00;36.20;;;;;;5094821;28;19946;-72
2023/04/05 00:54:23;;;;;;;;;;;18.50;35.80;;;;;;5094243;28;19959;-72
2023/04/05 00:56:51;;;;;;;;;;;19.00;35.20;;;;;;5094500;28;19926;-71
2023/04/05 00:59:17;;;;;;;;;;;19.60;34.30;;;;;;5094553;28;20017;-71
2023/04/05 01:01:53;;;;;;;;;;;20.30;33.70;;;;;;5094305;28;19928;-71
2023/04/05 01:04:24;;;;;;;;;;;20.90;32.80;;;;;;5094423;28;20374;-71
2023/04/05 01:09:36;;;;;;;;;;;21.90;31.60;;;;;;5110224;27;20131;-72
2023/04/05 01:12:03;;;;;;;;;;;22.30;30.70;;;;;;5108948;28;19927;-71
2023/04/05 01:14:28;;;;;;;;;;;22.60;30.50;;;;;;5108941;28;19966;-71
2023/04/05 01:16:57;;;;;;;;;;;22.90;30.00;;;;;;5108878;28;19924;-71
2023/04/05 01:19:26;;;;;;;;;;;23.10;29.70;;;;;;5108754;28;19919;-71
2023/04/05 01:22:12;;;;;;;;;;;23.30;29.40;;;;;;5108795;28;19959;-72
2023/04/05 01:27:27;;;;;;;;;;;23.60;29.30;;;;;;5109830;27;19960;-72
2023/04/05 01:32:59;;;;;;;;;;;23.90;28.90;;;;;;5110089;27;19918;-71
2023/04/05 01:38:10;;;;;;;;;;;24.00;28.60;;;;;;5129991;27;20003;-71
2023/04/05 01:40:37;;;;;;;;;;;24.10;28.60;;;;;;5128499;28;19926;-71
2023/04/05 01:43:11;;;;;;;;;;;24.20;28.40;;;;;;5128870;28;19923;-71
2023/04/05 01:45:36;;;;;;;;;;;24.30;28.60;;;;;;5128833;28;19920;-72
2023/04/05 01:48:02;;;;;;;;;;;24.20;28.30;;;;;;5130196;27;19920;-72
2023/04/05 01:50:27;;;;;;;;;;;24.30;28.20;;;;;;5128952;28;20601;-72
2023/04/05 01:52:53;;;;;;;;;;;24.40;28.40;;;;;;5129215;28;19920;-71
2023/04/05 01:55:18;;;;;;;;;;;24.50;28.30;;;;;;5128168;28;19920;-71
2023/04/05 01:57:44;;;;;;;;;;;24.50;28.10;;;;;;5128069;28;20400;-72
2023/04/05 02:00:09;;;;;;;;;;;24.50;28.10;;;;;;5128073;28;19931;-71
2023/04/05 02:02:35;;;;;;;;;;;24.60;28.10;;;;;;5128312;28;19920;-71
2023/04/05 02:05:00;;;;;;;;;;;24.60;28.10;;;;;;5128459;28;20302;-71
2023/04/05 02:07:26;;;;;;;;;;;24.60;28.10;;;;;;5129955;27;19927;-72
2023/04/05 02:09:51;;;;;;;;;;;24.70;28.00;;;;;;5130285;27;20388;-72
2023/04/05 02:12:17;;;;;;;;;;;24.70;28.00;;;;;;5130282;27;20420;-72
2023/04/05 02:14:42;;;;;;;;;;;24.80;28.00;;;;;;5127975;28;19926;-71
2023/04/05 02:17:08;;;;;;;;;;;24.80;27.80;;;;;;5127876;28;20205;-71
2023/04/05 02:19:39;;;;;;;;;;;24.80;28.50;;;;;;5127844;28;19959;-71
2023/04/05 02:22:05;;;;;;;;;;;24.80;27.80;;;;;;5127629;28;19927;-71
2023/04/05 02:24:31;;;;;;;;;;;24.90;27.80;;;;;;5129985;27;19927;-71
2023/04/05 02:26:56;;;;;;;;;;;24.90;27.70;;;;;;5128354;28;19926;-72
2023/04/05 02:29:22;;;;;;;;;;;24.90;27.70;;;;;;5128915;28;20165;-72
2023/04/05 02:31:47;;;;;;;;;;;24.90;27.70;;;;;;5129705;27;19920;-72
2023/04/05 02:34:13;;;;;;;;;;;24.90;27.80;;;;;;5128515;28;19969;-72
2023/04/05 02:36:40;;;;;;;;;;;24.90;27.60;;;;;;5110993;28;20332;-72
2023/04/05 02:39:06;;;;;;;;;;;24.90;27.60;;;;;;5128388;28;19926;-72
2023/04/05 02:41:31;;;;;;;;;;;24.90;27.60;;;;;;5128270;28;19920;-72
2023/04/05 02:43:58;;;;;;;;;;;24.80;27.60;;;;;;5127893;28;19920;-72
2023/04/05 02:46:24;;;;;;;;;;;24.70;27.80;;;;;;5129604;27;19942;-72
2023/04/05 02:48:49;;;;;;;;;;;24.60;27.80;;;;;;5117879;28;20363;-72
2023/04/05 02:51:15;;;;;;;;;;;24.60;27.80;;;;;;5114371;28;19919;-72
2023/04/05 02:53:41;;;;;;;;;;;24.50;27.90;;;;;;5114518;28;19920;-71
2023/04/05 02:56:06;;;;;;;;;;;24.50;28.10;;;;;;5115655;28;20268;-71
2023/04/05 02:58:32;;;;;;;;;;;24.60;27.90;;;;;;5114197;28;19920;-71
2023/04/05 03:01:00;;;;;;;;;;;24.70;27.90;;;;;;5114498;28;19920;-71
2023/04/05 03:03:27;;;;;;;;;;;24.70;27.80;;;;;;5113364;28;19981;-71
2023/04/05 03:05:59;;;;;;;;;;;24.80;27.70;;;;;;5113313;28;19924;-71
2023/04/05 03:08:24;;;;;;;;;;;24.90;27.70;;;;;;5113092;28;19972;-71
2023/04/05 03:10:50;;;;;;;;;;;24.90;27.70;;;;;;5113105;28;20006;-71
2023/04/05 03:13:16;;;;;;;;;;;25.00;27.50;;;;;;5113237;28;19920;-72
2023/04/05 03:15:42;;;;;;;;;;;25.00;27.50;;;;;;5113171;28;19942;-71
2023/04/05 03:18:07;;;;;;;;;;;25.10;28.10;;;;;;5113086;28;20390;-71
2023/04/05 03:20:41;;;;;;;;;;;25.10;27.50;;;;;;5113999;28;20363;-71
2023/04/05 03:23:07;;;;;;;;;;;25.20;27.40;;;;;;5113847;27;19963;-71
2023/04/05 03:25:34;;;;;;;;;;;25.20;27.30;;;;;;5113329;28;20356;-71
2023/04/05 03:28:02;;;;;;;;;;;25.20;27.30;;;;;;5114587;28;19923;-72
2023/04/05 03:30:28;;;;;;;;;;;25.20;27.20;;;;;;5113458;28;19919;-72
2023/04/05 03:32:53;;;;;;;;;;;25.30;27.30;;;;;;5113103;28;20367;-71
2023/04/05 03:35:19;;;;;;;;;;;25.30;27.30;;;;;;5112933;28;20010;-72
2023/04/05 03:37:45;;;;;;;;;;;25.30;27.20;;;;;;5112336;28;20290;-72
2023/04/05 03:40:11;;;;;;;;;;;25.30;27.20;;;;;;5112786;28;19926;-72
2023/04/05 03:42:37;;;;;;;;;;;25.40;27.20;;;;;;5113605;28;19935;-72
2023/04/05 03:45:04;;;;;;;;;;;25.40;27.20;;;;;;5113630;28;20391;-72
2023/04/05 03:47:30;;;;;;;;;;;25.40;27.20;;;;;;5113161;28;20332;-72
2023/04/05 03:49:55;;;;;;;;;;;25.40;27.20;;;;;;5112958;28;19923;-72
2023/04/05 03:52:21;;;;;;;;;;;25.40;27.20;;;;;;5112714;28;19927;-72
2023/04/05 03:54:46;;;;;;;;;;;25.40;27.10;;;;;;5112837;28;19923;-72
2023/04/05 03:57:12;;;;;;;;;;;25.40;27.10;;;;;;5113518;28;20463;-71
2023/04/05 03:59:37;;;;;;;;;;;25.40;27.10;;;;;;5111223;28;19920;-72
2023/04/05 04:02:03;;;;;;;;;;;25.50;27.20;;;;;;5111897;28;20018;-72
2023/04/05 04:04:28;;;;;;;;;;;25.40;27.20;;;;;;5111859;28;19942;-72
2023/04/05 04:06:55;;;;;;;;;;;25.50;27.10;;;;;;5112761;28;19920;-72
2023/04/05 04:09:21;;;;;;;;;;;25.50;27.00;;;;;;5112365;28;20417;-72
2023/04/05 04:11:47;;;;;;;;;;;25.60;27.00;;;;;;5112336;28;19920;-71
2023/04/05 04:14:12;;;;;;;;;;;25.70;27.00;;;;;;5112231;28;20014;-72
2023/04/05 04:16:38;;;;;;;;;;;25.80;27.00;;;;;;5111610;28;19924;-72
2023/04/05 04:19:03;;;;;;;;;;;25.80;27.00;;;;;;5112397;28;19920;-71
2023/04/05 04:21:31;;;;;;;;;;;25.90;26.80;;;;;;5111557;28;19926;-72
2023/04/05 04:23:56;;;;;;;;;;;26.00;27.40;;;;;;5112279;28;19934;-72
2023/04/05 04:26:27;;;;;;;;;;;26.20;26.70;;;;;;5112454;28;19923;-72
2023/04/05 04:28:53;;;;;;;;;;;26.30;26.60;;;;;;5112261;28;19961;-71
2023/04/05 04:31:20;;;;;;;;;;;26.50;26.50;;;;;;5112237;28;19988;-71
2023/04/05 04:33:48;;;;;;;;;;;26.60;26.40;;;;;;5112368;28;19941;-71
2023/04/05 04:36:13;;;;;;;;;;;26.70;26.30;;;;;;5110847;28;19924;-71
2023/04/05 04:38:41;;;;;;;;;;;26.80;26.30;;;;;;5111565;28;19946;-71
2023/04/05 04:41:09;;;;;;;;;;;26.90;26.20;;;;;;5111695;28;19994;-71
2023/04/05 04:43:41;;;;;;;;;;;27.00;26.80;;;;;;5111139;28;19920;-72
2023/04/05 04:46:13;;;;;;;;;;;27.00;26.10;;;;;;5112105;28;19926;-72
2023/04/05 04:48:40;;;;;;;;;;;27.00;26.10;;;;;;5111807;28;19968;-72
2023/04/05 04:51:06;;;;;;;;;;;27.10;26.50;;;;;;5112983;28;19946;-72
2023/04/05 04:53:31;;;;;;;;;;;27.10;25.90;;;;;;5111882;28;19919;-71
2023/04/05 04:55:57;;;;;;;;;;;27.10;26.00;;;;;;5112810;28;19919;-71
2023/04/05 04:58:22;;;;;;;;;;;27.10;25.90;;;;;;5111546;28;19920;-71
2023/04/05 05:00:48;;;;;;;;;;;27.10;25.90;;;;;;5112677;28;19920;-71
2023/04/05 05:03:13;;;;;;;;;;;27.10;25.90;;;;;;5111278;28;19947;-72
2023/04/05 05:05:47;;;;;;;;;;;27.10;25.90;;;;;;5112510;28;19919;-72
2023/04/05 05:08:13;;;;;;;;;;;27.10;25.80;;;;;;5112501;28;20395;-72
2023/04/05 05:10:38;;;;;;;;;;;27.20;25.90;;;;;;5111273;28;20010;-72
2023/04/05 05:13:04;;;;;;;;;;;27.20;25.90;;;;;;5110352;28;19920;-72
2023/04/05 05:15:30;;;;;;;;;;;27.20;25.90;;;;;;5112078;28;20052;-72
2023/04/05 05:17:57;;;;;;;;;;;27.10;25.80;;;;;;5112153;28;19924;-72
2023/04/05 05:20:23;;;;;;;;;;;27.10;25.80;;;;;;5110883;28;19920;-72
2023/04/05 05:22:50;;;;;;;;;;;27.10;25.80;;;;;;5110720;28;19974;-72
2023/04/05 05:25:15;;;;;;;;;;;27.10;25.80;;;;;;5110692;28;20431;-72
2023/04/05 05:27:41;;;;;;;;;;;27.10;25.90;;;;;;5110658;28;19924;-72
2023/04/05 05:30:07;;;;;;;;;;;27.10;25.80;;;;;;5111470;28;19920;-72
2023/04/05 05:32:32;;;;;;;;;;;27.10;25.90;;;;;;5112011;28;20365;-72
2023/04/05 05:34:57;;;;;;;;;;;27.10;25.90;;;;;;5112019;28;20371;-72
2023/04/05 05:37:31;;;;;;;;;;;27.10;25.90;;;;;;5110504;28;19923;-72
2023/04/05 05:39:56;;;;;;;;;;;27.10;25.90;;;;;;5102794;28;20294;-71
2023/04/05 05:42:22;;;;;;;;;;;27.10;25.90;;;;;;5090543;28;20003;-67
2023/04/05 05:44:48;;;;;;;;;;;27.00;25.60;;;;;;5088381;28;19934;-72
2023/04/05 05:47:13;;;;;;;;;;;26.50;24.70;;;;;;5094049;28;19920;-69
2023/04/05 05:49:39;;;;;;;;;;;26.20;25.40;;;;;;5087588;28;19920;-72
2023/04/05 05:52:05;;;;;;;;;;;25.80;25.90;;;;;;5085081;28;20200;-71
2023/04/05 05:54:30;;;;;;;;;;;25.40;26.40;;;;;;5093610;28;19924;-70
2023/04/05 05:56:56;;;;;;;;;;;25.00;26.60;;;;;;5092583;28;19924;-74
2023/04/05 05:59:21;;;;;;;;;;;24.70;27.00;;;;;;5089282;28;19958;-71
2023/04/05 06:01:47;;;;;;;;;;;24.50;27.40;;;;;;5086404;28;19928;-72
2023/04/05 06:04:13;;;;;;;;;;;24.00;27.60;;;;;;5083911;28;19920;-71
2023/04/05 06:06:39;;;;;;;;;;;23.70;27.80;;;;;;5085725;28;20270;-73
2023/04/05 06:09:05;;;;;;;;;;;23.30;28.30;;;;;;5088349;28;19920;-72
2023/04/05 06:11:30;;;;;;;;;;;23.00;28.40;;;;;;5091492;28;20075;-73
2023/04/05 06:13:56;;;;;;;;;;;22.80;28.70;;;;;;5086601;28;19971;-73
2023/04/05 06:16:22;;;;;;;;;;;22.50;28.90;;;;;;5082245;28;19940;-72
2023/04/05 06:18:47;;;;;;;;;;;22.30;28.90;;;;;;5086042;28;19928;-72
2023/04/05 06:21:13;;;;;;;;;;;22.10;29.20;;;;;;5055319;28;19970;-75
2023/04/05 06:23:41;;;;;;;;;;;21.90;29.30;;;;;;5084224;28;19961;-75
2023/04/05 06:26:06;;;;;;;;;;;21.80;29.70;;;;;;5089441;28;19920;-72
2023/04/05 06:28:32;;;;;;;;;;;21.60;30.00;;;;;;5090673;28;19920;-75
2023/04/05 06:30:58;;;;;;;;;;;21.40;30.20;;;;;;5085091;28;19924;-74
2023/04/05 06:33:24;;;;;;;;;;;21.20;30.30;;;;;;5085357;28;20031;-76
2023/04/05 06:35:49;;;;;;;;;;;21.00;30.50;;;;;;5095231;28;20744;-76
2023/04/05 06:38:15;;;;;;;;;;;20.90;30.90;;;;;;5091711;28;20659;-74
2023/04/05 06:40:40;;;;;;;;;;;21.20;31.30;;;;;;5092452;28;20413;-70
2023/04/05 06:43:06;;;;;;;;;;;21.70;31.20;;;;;;5089611;28;19920;-72
2023/04/05 06:45:32;;;;;;;;;;;22.20;31.00;;;;;;5090020;28;20334;-69
2023/04/05 06:47:57;;;;;;;;;;;22.80;30.50;;;;;;5096889;28;19920;-71
2023/04/05 06:50:23;;;;;;;;;;;23.30;29.70;;;;;;5099256;28;20054;-70
2023/04/05 06:52:48;;;;;;;;;;;23.70;29.60;;;;;;5087232;28;20012;-74
2023/04/05 06:55:14;;;;;;;;;;;24.10;29.30;;;;;;5098258;28;19924;-70
2023/04/05 06:57:40;;;;;;;;;;;24.50;28.80;;;;;;5094196;28;19930;-72
2023/04/05 07:00:09;;;;;;;;;;;24.70;28.60;;;;;;5097536;28;19928;-70
2023/04/05 07:02:35;;;;;;;;;;;24.80;28.40;;;;;;5090004;28;19970;-71
2023/04/05 07:05:04;;;;;;;;;;;24.90;28.40;;;;;;5098451;28;19971;-72
2023/04/05 07:07:31;;;;;;;;;;;24.80;28.30;;;;;;5097612;28;19924;-72
2023/04/05 07:09:57;;;;;;;;;;;24.70;28.30;;;;;;5090644;28;19951;-73
2023/04/05 07:12:22;;;;;;;;;;;24.60;28.50;;;;;;5088056;28;20654;-72
2023/04/05 07:14:47;;;;;;;;;;;24.40;28.50;;;;;;5091566;28;19928;-71
2023/04/05 07:17:13;;;;;;;;;;;24.20;28.70;;;;;;5089113;28;20497;-70
2023/04/05 07:19:38;;;;;;;;;;;24.00;28.90;;;;;;5095217;28;19932;-72
2023/04/05 07:22:04;;;;;;;;;;;23.90;29.10;;;;;;5088869;28;19946;-71
2023/04/05 07:24:30;;;;;;;;;;;23.70;29.20;;;;;;5093823;28;20011;-71
2023/04/05 07:26:56;;;;;;;;;;;23.50;29.40;;;;;;5087997;28;19932;-69
2023/04/05 07:29:21;;;;;;;;;;;23.20;29.70;;;;;;5087305;28;20213;-72
2023/04/05 07:31:47;;;;;;;;;;;22.90;29.80;;;;;;5097531;28;19924;-72
2023/04/05 07:34:12;;;;;;;;;;;22.80;30.00;;;;;;5088167;28;19928;-69
2023/04/05 07:36:38;;;;;;;;;;;22.60;30.20;;;;;;5086085;28;19932;-70
2023/04/05 07:39:04;;;;;;;;;;;22.40;30.50;;;;;;5088486;28;19963;-73
2023/04/05 07:41:30;;;;;;;;;;;22.20;30.70;;;;;;5087832;28;19969;-77
2023/04/05 07:43:56;;;;;;;;;;;22.10;31.00;;;;;;5090694;28;19930;-72
2023/04/05 07:46:22;;;;;;;;;;;21.90;31.10;;;;;;5094085;28;19923;-73
2023/04/05 07:48:47;;;;;;;;;;;21.90;31.30;;;;;;5095467;28;19927;-70
2023/04/05 07:51:13;;;;;;;;;;;21.90;31.30;;;;;;5088814;28;20027;-75
2023/04/05 07:53:38;;;;;;;;;;;21.90;31.50;;;;;;5091386;28;20185;-74
2023/04/05 07:56:04;;;;;;;;;;;22.00;31.70;;;;;;5081951;28;20528;-78
2023/04/05 07:58:31;;;;;;;;;;;22.10;32.00;;;;;;5087017;28;20829;-75
2023/04/05 08:01:00;;;;;;;;;;;22.20;32.30;;;;;;5088351;28;19924;-76
2023/04/05 08:03:26;;;;;;;;;;;22.40;32.70;;;;;;5089741;28;19924;-72
2023/04/05 08:05:51;;;;;;;;;;;22.60;32.90;;;;;;5092634;28;20367;-70
2023/04/05 08:08:17;;;;;;;;;;;22.70;32.30;;;;;;5087856;28;19927;-75
2023/04/05 08:10:42;;;;;;;;;;;22.80;32.30;;;;;;5096459;28;19951;-75
2023/04/05 08:13:08;;;;;;;;;;;22.80;32.10;;;;;;5097933;28;19928;-74
2023/04/05 08:15:33;;;;;;;;;;;22.90;32.10;;;;;;5095974;28;19920;-71
2023/04/05 08:17:59;;;;;;;;;;;22.90;32.10;;;;;;5087028;28;20252;-77
2023/04/05 08:20:25;;;;;;;;;;;22.90;32.00;;;;;;5091499;28;19934;-80
2023/04/05 08:22:50;;;;;;;;;;;22.80;32.00;;;;;;5086551;28;19921;-75
2023/04/05 08:25:16;;;;;;;;;;;22.90;32.00;;;;;;5092930;28;19936;-73
2023/04/05 08:27:41;;;;;;;;;;;22.80;32.00;;;;;;5093398;28;20068;-75
2023/04/05 08:30:07;;;;;;;;;;;22.70;32.00;;;;;;5093941;28;20447;-75
2023/04/05 08:32:33;;;;;;;;;;;22.60;32.00;;;;;;5087555;28;19932;-70
2023/04/05 08:34:59;;;;;;;;;;;22.50;32.00;;;;;;5096471;28;20093;-75
2023/04/05 08:37:25;;;;;;;;;;;22.40;31.80;;;;;;5096914;28;19935;-74
2023/04/05 08:39:50;;;;;;;;;;;22.30;32.10;;;;;;5088943;28;19924;-74
2023/04/05 08:42:17;;;;;;;;;;;22.30;32.30;;;;;;5088164;28;19932;-74
2023/04/05 08:44:43;;;;;;;;;;;22.10;32.30;;;;;;5093326;28;19924;-77
2023/04/05 08:47:13;;;;;;;;;;;22.00;32.30;;;;;;5097153;28;19920;-75
2023/04/05 08:49:43;;;;;;;;;;;22.00;32.40;;;;;;5099896;27;20075;-76
2023/04/05 08:52:08;;;;;;;;;;;21.90;32.10;;;;;;5093341;28;20473;-73
2023/04/05 08:54:34;;;;;;;;;;;21.70;31.90;;;;;;5092906;28;19927;-78
2023/04/05 08:57:02;;;;;;;;;;;21.60;32.30;;;;;;5093458;28;19982;-77
2023/04/05 08:59:28;;;;;;;;;;;21.60;32.30;;;;;;5098602;28;19959;-76
2023/04/05 09:01:54;;;;;;;;;;;21.50;32.30;;;;;;5088508;27;20407;-73
2023/04/05 09:04:22;;;;;;;;;;;21.40;32.50;;;;;;5096057;28;19947;-71
2023/04/05 09:06:49;;;;;;;;;;;21.30;32.60;;;;;;5088958;28;19924;-76
2023/04/05 09:09:15;;;;;;;;;;;21.30;32.80;;;;;;5089159;28;20056;-75
2023/04/05 09:11:42;;;;;;;;;;;21.30;33.10;;;;;;5096862;28;19924;-76
2023/04/05 09:14:08;;;;;;;;;;;21.20;32.70;;;;;;5090199;28;20326;-74
2023/04/05 09:16:37;;;;;;;;;;;21.20;32.90;;;;;;5095530;28;19932;-74
2023/04/05 09:19:04;;;;;;;;;;;21.10;33.10;;;;;;5087069;28;19981;-70
2023/04/05 09:21:29;;;;;;;;;;;21.20;33.10;;;;;;5095817;28;20040;-73
2023/04/05 09:23:55;;;;;;;;;;;21.30;33.00;;;;;;5088041;28;20291;-72
2023/04/05 09:26:23;;;;;;;;;;;21.30;33.00;;;;;;5094710;28;20509;-73
2023/04/05 09:28:48;;;;;;;;;;;21.30;33.00;;;;;;5091184;28;19927;-72
2023/04/05 09:34:09;;;;;;;;;;;21.40;33.00;;;;;;5082199;27;19924;-72
2023/04/05 09:36:35;;;;;;;;;;;21.50;33.00;;;;;;5116784;27;19920;-72
2023/04/05 09:39:05;;;;;;;;;;;21.60;32.90;;;;;;5119090;27;19936;-72
2023/04/05 09:41:31;;;;;;;;;;;21.60;32.90;;;;;;5116659;27;20035;-72
2023/04/05 09:43:56;;;;;;;;;;;21.50;32.90;;;;;;5086141;28;19949;-72
2023/04/05 09:46:37;;;;;;;;;;;21.60;32.90;;;;;;5083797;28;19925;-72
2023/04/05 09:49:02;;;;;;;;;;;21.60;33.00;;;;;;5091363;28;19982;-78
2023/04/05 09:51:36;;;;;;;;;;;21.60;32.30;;;;;;5084609;28;19932;-78
2023/04/05 09:54:02;;;;;;;;;;;21.60;31.60;;;;;;5092727;28;19978;-78
2023/04/05 09:56:29;;;;;;;;;;;21.50;31.90;;;;;;5086504;28;19924;-75
2023/04/05 09:58:59;;;;;;;;;;;21.40;31.10;;;;;;5115920;27;20415;-78
2023/04/05 10:01:29;;;;;;;;;;;21.30;30.50;;;;;;5083329;28;19957;-70
2023/04/05 10:03:55;;;;;;;;;;;21.30;30.90;;;;;;5075944;28;19957;-76
2023/04/05 10:06:21;;;;;;;;;;;21.40;31.50;;;;;;5081639;28;19930;-72
2023/04/05 10:08:47;;;;;;;;;;;21.40;31.20;;;;;;5072192;28;20354;-70
2023/04/05 10:11:13;;;;;;;;;;;21.50;31.20;;;;;;5079993;28;19928;-74
2023/04/05 10:13:39;;;;;;;;;;;21.50;31.30;;;;;;5087801;28;19924;-75
2023/04/05 10:16:08;;;;;;;;;;;21.50;31.40;;;;;;5084435;28;19924;-70
2023/04/05 10:18:40;;;;;;;;;;;21.50;31.60;;;;;;5082840;28;19924;-70
2023/04/05 10:21:09;;;;;;;;;;;21.60;31.50;;;;;;5115762;27;19924;-69
2023/04/05 10:23:36;;;;;;;;;;;21.60;31.50;;;;;;5082315;28;19920;-69
2023/04/05 10:26:06;;;;;;;;;;;21.70;31.60;;;;;;5080806;28;19924;-75
2023/04/05 10:28:34;;;;;;;;;;;21.70;31.60;;;;;;5070835;28;19924;-73
2023/04/05 10:31:19;;;;;;;;;;;21.60;31.60;;;;;;5078885;28;19924;-77
2023/04/05 10:33:46;;;;;;;;;;;21.70;31.70;;;;;;5079017;28;19932;-69
2023/04/05 10:36:20;;;;;;;;;;;21.60;31.70;;;;;;5075036;28;19954;-71
2023/04/05 10:39:06;;;;;;;;;;;21.60;31.30;;;;;;5083333;28;19978;-71
2023/04/05 10:41:40;;;;;;;;;;;21.50;31.50;;;;;;5118879;27;20432;-75
2023/04/05 10:44:11;;;;;;;;;;;21.50;31.50;;;;;;5080989;28;19954;-74
2023/04/05 10:46:38;;;;;;;;;;;21.50;30.80;;;;;;5056717;28;19928;-71
2023/04/05 10:49:19;;;;;;;;;;;21.30;29.90;;;;;;5105315;27;19920;-73
2023/04/05 10:51:45;;;;;;;;;;;21.20;30.10;;;;;;5071191;28;19930;-73
2023/04/05 10:54:10;;;;;;;;;;;21.10;30.40;;;;;;5072610;28;20007;-74
2023/04/05 10:56:37;;;;;;;;;;;21.10;30.00;;;;;;5077366;28;19925;-74
2023/04/05 10:59:02;;;;;;;;;;;21.00;29.80;;;;;;5077603;28;19978;-75
2023/04/05 11:01:28;;;;;;;;;;;21.00;30.20;;;;;;5075908;28;19920;-75
2023/04/05 11:03:54;;;;;;;;;;;21.00;30.40;;;;;;5079355;28;20015;-73
2023/04/05 11:06:21;;;;;;;;;;;21.00;30.70;;;;;;5084197;28;19928;-75
2023/04/05 11:08:47;;;;;;;;;;;21.00;30.80;;;;;;5073642;28;19924;-77
2023/04/05 11:11:15;;;;;;;;;;;21.00;31.00;;;;;;5109292;27;20023;-76
2023/04/05 11:13:56;;;;;;;;;;;20.90;31.00;;;;;;5080297;28;20061;-76
2023/04/05 11:16:23;;;;;;;;;;;21.00;31.10;;;;;;5075052;28;20362;-74
2023/04/05 11:18:49;;;;;;;;;;;21.00;31.40;;;;;;5079130;28;19920;-77
2023/04/05 11:21:23;;;;;;;;;;;21.00;31.50;;;;;;5077326;28;19924;-76
2023/04/05 11:29:45;;;;;;;;;;;21.00;31.40;;;;;;5094355;27;19927;-78
2023/04/05 11:32:11;;;;;;;;;;;20.90;31.30;;;;;;5071358;28;19975;-78
2023/04/05 11:34:36;;;;;;;;;;;21.00;31.40;;;;;;5074866;28;19924;-79
2023/04/05 11:37:02;;;;;;;;;;;21.00;31.40;;;;;;5109555;28;19920;-79
2023/04/05 11:39:28;;;;;;;;;;;21.10;31.40;;;;;;5111450;28;19920;-79
2023/04/05 11:41:55;;;;;;;;;;;21.10;31.50;;;;;;5078833;28;20376;-80
2023/04/05 11:44:22;;;;;;;;;;;21.10;31.50;;;;;;5106771;28;19920;-79
2023/04/05 11:46:47;;;;;;;;;;;21.10;31.50;;;;;;5079888;28;19921;-79
2023/04/05 11:49:13;;;;;;;;;;;21.10;30.90;;;;;;5081858;28;19974;-78
2023/04/05 11:51:41;;;;;;;;;;;21.00;30.30;;;;;;5079613;28;19927;-80
2023/04/05 11:54:07;;;;;;;;;;;21.00;30.90;;;;;;5079815;28;19920;-79
2023/04/05 11:56:32;;;;;;;;;;;21.00;31.20;;;;;;5075584;28;19981;-78
2023/04/05 11:58:58;;;;;;;;;;;21.10;31.10;;;;;;5079620;28;19924;-79
2023/04/05 12:01:24;;;;;;;;;;;21.20;30.40;;;;;;5111492;28;19951;-79
2023/04/05 12:03:54;;;;;;;;;;;21.20;30.30;;;;;;5080320;28;19928;-79
2023/04/05 12:06:21;;;;;;;;;;;21.10;30.00;;;;;;5080400;28;19924;-79
2023/04/05 12:08:51;;;;;;;;;;;21.20;30.00;;;;;;5077933;28;20405;-79
2023/04/05 12:11:25;;;;;;;;;;;21.10;30.00;;;;;;5078542;28;19978;-80
2023/04/05 12:13:55;;;;;;;;;;;21.20;29.90;;;;;;5078903;28;20431;-80
2023/04/05 12:16:20;;;;;;;;;;;21.10;29.70;;;;;;5107365;27;19924;-79
2023/04/05 12:18:52;;;;;;;;;;;21.10;29.50;;;;;;5075646;28;20020;-81
2023/04/05 12:21:18;;;;;;;;;;;21.10;29.70;;;;;;5080074;28;19956;-80
2023/04/05 12:23:44;;;;;;;;;;;21.00;29.70;;;;;;5110698;28;19967;-80
2023/04/05 12:26:09;;;;;;;;;;;20.90;29.80;;;;;;5113794;27;19950;-79
2023/04/05 12:28:55;;;;;;;;;;;20.90;29.80;;;;;;5080159;28;19924;-80
2023/04/05 12:31:40;;;;;;;;;;;20.80;30.20;;;;;;5074048;28;19937;-80
2023/04/05 12:34:06;;;;;;;;;;;20.80;30.20;;;;;;5073878;28;19928;-79
2023/04/05 12:36:32;;;;;;;;;;;20.70;30.10;;;;;;5082076;28;19928;-79
2023/04/05 12:38:57;;;;;;;;;;;20.60;30.30;;;;;;5071499;28;19925;-78
2023/04/05 12:41:27;;;;;;;;;;;20.50;30.20;;;;;;5078411;28;19929;-80
2023/04/05 12:43:59;;;;;;;;;;;20.50;30.40;;;;;;5066945;28;20011;-81
2023/04/05 12:46:37;;;;;;;;;;;20.40;30.80;;;;;;5066251;28;20581;-80
2023/04/05 12:49:03;;;;;;;;;;;20.30;30.70;;;;;;5096250;28;19970;-79
2023/04/05 12:51:31;;;;;;;;;;;20.30;31.00;;;;;;5086599;28;20231;-80
2023/04/05 12:53:56;;;;;;;;;;;20.30;31.00;;;;;;5089152;28;20287;-80
2023/04/05 12:56:22;;;;;;;;;;;20.20;31.00;;;;;;5064653;28;19921;-80
2023/04/05 12:58:49;;;;;;;;;;;20.20;31.00;;;;;;5066194;28;19978;-80
2023/04/05 13:01:15;;;;;;;;;;;20.20;31.20;;;;;;5068052;28;19921;-80
2023/04/05 13:03:42;;;;;;;;;;;20.20;31.60;;;;;;5070689;28;19945;-80
2023/04/05 13:06:08;;;;;;;;;;;20.20;32.60;;;;;;5101640;28;19936;-79
2023/04/05 13:08:33;;;;;;;;;;;20.10;32.90;;;;;;5069051;28;19932;-80
2023/04/05 13:10:59;;;;;;;;;;;20.10;33.20;;;;;;5069715;28;19925;-80
2023/04/05 13:13:25;;;;;;;;;;;20.00;32.70;;;;;;5070471;28;20473;-81
2023/04/05 13:15:50;;;;;;;;;;;20.00;32.60;;;;;;5089941;28;19921;-80
2023/04/05 13:18:16;;;;;;;;;;;20.00;32.60;;;;;;5061269;28;19921;-81
2023/04/05 13:20:42;;;;;;;;;;;19.90;32.70;;;;;;5067273;28;19971;-81
2023/04/05 13:23:10;;;;;;;;;;;19.80;32.60;;;;;;5085138;28;19925;-80
2023/04/05 13:25:36;;;;;;;;;;;19.80;32.70;;;;;;5083831;28;20014;-81
2023/04/05 13:28:02;;;;;;;;;;;19.80;32.70;;;;;;5084321;28;20026;-80
2023/04/05 13:30:29;;;;;;;;;;;19.70;32.70;;;;;;5084769;28;19920;-81
2023/04/05 13:32:54;;;;;;;;;;;19.70;32.70;;;;;;5083992;28;20004;-80
2023/04/05 13:35:20;;;;;;;;;;;19.70;32.80;;;;;;5067243;28;20047;-81
2023/04/05 13:37:45;;;;;;;;;;;19.70;32.80;;;;;;5084736;28;19927;-80
2023/04/05 13:40:11;;;;;;;;;;;19.60;32.80;;;;;;5085058;28;19921;-80
2023/04/05 13:42:37;;;;;;;;;;;19.60;32.90;;;;;;5085326;28;20307;-81
2023/04/05 13:45:03;;;;;;;;;;;19.60;32.90;;;;;;5067972;28;20012;-80
2023/04/05 13:47:29;;;;;;;;;;;19.50;32.80;;;;;;5097445;28;19932;-81
2023/04/05 13:49:54;;;;;;;;;;;19.40;32.80;;;;;;5070707;28;19921;-81
2023/04/05 13:52:20;;;;;;;;;;;19.50;32.90;;;;;;5087079;28;19967;-80
2023/04/05 13:54:45;;;;;;;;;;;19.50;32.90;;;;;;5070669;28;19924;-80
2023/04/05 13:57:13;;;;;;;;;;;19.50;32.90;;;;;;5070661;28;19920;-80
2023/04/05 13:59:38;;;;;;;;;;;19.40;32.90;;;;;;5070716;28;20279;-80
2023/04/05 14:02:04;;;;;;;;;;;19.40;33.70;;;;;;5070802;28;19920;-80
2023/04/05 14:04:30;;;;;;;;;;;19.40;33.00;;;;;;5104985;28;19925;-80
2023/04/05 14:06:56;;;;;;;;;;;19.40;32.90;;;;;;5104180;28;19927;-80
2023/04/05 14:09:22;;;;;;;;;;;19.40;33.70;;;;;;5103975;28;19928;-80
2023/04/05 14:11:47;;;;;;;;;;;19.40;32.90;;;;;;5103430;28;19921;-80
2023/04/05 14:14:13;;;;;;;;;;;19.40;32.90;;;;;;5069755;28;19924;-80
2023/04/05 14:16:38;;;;;;;;;;;19.40;32.90;;;;;;5103683;28;19921;-80
2023/04/05 14:19:04;;;;;;;;;;;19.30;32.80;;;;;;5069310;28;19921;-80
2023/04/05 14:21:30;;;;;;;;;;;19.30;32.90;;;;;;5069871;28;19931;-81
2023/04/05 14:23:56;;;;;;;;;;;19.30;32.90;;;;;;5070307;28;20294;-81
2023/04/05 14:26:24;;;;;;;;;;;19.20;32.80;;;;;;5070051;28;19920;-80
2023/04/05 14:28:49;;;;;;;;;;;19.20;32.90;;;;;;5069595;28;20264;-81
2023/04/05 14:31:15;;;;;;;;;;;19.20;33.00;;;;;;5103307;28;20451;-81
2023/04/05 14:33:40;;;;;;;;;;;19.20;33.00;;;;;;5069386;28;20339;-80